sensor_id;sensor_type;location;lat;lon;timestamp;temperature;humidity
16347;DHT22;8283;48.504;13.734;2023-02-14T00:01:10;8.50;66.40
16347;DHT22;8283;48.504;13.734;2023-02-14T00:03:55;8.50;66.60
16347;DHT22;8283;48.504;13.734;2023-02-14T00:06:43;8.50;66.40
16347;DHT22;8283;48.504;13.734;2023-02-14T00:09:28;9.60;66.90
16347;DHT22;8283;48.504;13.734;2023-02-14T00:12:12;8.50;66.40
16347;DHT22;8283;48.504;13.734;2023-02-14T00:14:57;8.50;66.40
16347;DHT22;8283;48.504;13.734;2023-02-14T00:18:00;8.40;66.40
16347;DHT22;8283;48.504;13.734;2023-02-14T00:20:46;8.40;66.50
16347;DHT22;8283;48.504;13.734;2023-02-14T00:23:30;8.40;66.40
16347;DHT22;8283;48.504;13.734;2023-02-14T00:26:14;8.40;66.30
16347;DHT22;8283;48.504;13.734;2023-02-14T00:29:00;8.40;66.30
16347;DHT22;8283;48.504;13.734;2023-02-14T00:31:44;8.30;66.30
16347;DHT22;8283;48.504;13.734;2023-02-14T00:34:29;8.30;66.30
16347;DHT22;8283;48.504;13.734;2023-02-14T00:37:15;8.30;66.30
16347;DHT22;8283;48.504;13.734;2023-02-14T00:39:59;8.30;66.40
16347;DHT22;8283;48.504;13.734;2023-02-14T00:42:44;8.20;66.30
16347;DHT22;8283;48.504;13.734;2023-02-14T00:45:28;8.20;66.20
16347;DHT22;8283;48.504;13.734;2023-02-14T00:48:13;8.60;66.40
16347;DHT22;8283;48.504;13.734;2023-02-14T00:50:58;8.20;66.20
16347;DHT22;8283;48.504;13.734;2023-02-14T00:53:44;8.20;66.20
16347;DHT22;8283;48.504;13.734;2023-02-14T00:56:29;8.10;66.10
16347;DHT22;8283;48.504;13.734;2023-02-14T00:59:15;8.10;66.10
16347;DHT22;8283;48.504;13.734;2023-02-14T01:02:01;8.10;66.10
16347;DHT22;8283;48.504;13.734;2023-02-14T01:04:46;8.10;66.20
16347;DHT22;8283;48.504;13.734;2023-02-14T01:07:32;8.00;66.00
16347;DHT22;8283;48.504;13.734;2023-02-14T01:10:17;8.00;66.00
16347;DHT22;8283;48.504;13.734;2023-02-14T01:13:02;8.30;66.20
16347;DHT22;8283;48.504;13.734;2023-02-14T01:15:49;8.00;65.60
16347;DHT22;8283;48.504;13.734;2023-02-14T01:18:33;7.90;66.00
16347;DHT22;8283;48.504;13.734;2023-02-14T01:21:25;7.90;65.90
16347;DHT22;8283;48.504;13.734;2023-02-14T01:24:13;7.90;65.80
16347;DHT22;8283;48.504;13.734;2023-02-14T01:27:00;8.60;66.20
16347;DHT22;8283;48.504;13.734;2023-02-14T01:29:45;7.80;65.70
16347;DHT22;8283;48.504;13.734;2023-02-14T01:32:30;7.70;65.60
16347;DHT22;8283;48.504;13.734;2023-02-14T01:35:15;7.70;65.70
16347;DHT22;8283;48.504;13.734;2023-02-14T01:37:59;7.70;65.70
16347;DHT22;8283;48.504;13.734;2023-02-14T01:40:43;7.60;65.70
16347;DHT22;8283;48.504;13.734;2023-02-14T01:43:28;7.60;65.60
16347;DHT22;8283;48.504;13.734;2023-02-14T01:46:13;7.50;65.60
16347;DHT22;8283;48.504;13.734;2023-02-14T01:51:54;7.40;66.30
16347;DHT22;8283;48.504;13.734;2023-02-14T01:54:51;6.80;65.90
16347;DHT22;8283;48.504;13.734;2023-02-14T01:57:42;7.30;66.20
16347;DHT22;8283;48.504;13.734;2023-02-14T02:00:29;7.30;66.40
16347;DHT22;8283;48.504;13.734;2023-02-14T02:03:38;7.20;66.30
16347;DHT22;8283;48.504;13.734;2023-02-14T02:06:32;7.20;66.40
16347;DHT22;8283;48.504;13.734;2023-02-14T02:09:29;7.20;66.70
16347;DHT22;8283;48.504;13.734;2023-02-14T02:12:16;7.20;66.70
16347;DHT22;8283;48.504;13.734;2023-02-14T02:15:02;7.30;66.50
16347;DHT22;8283;48.504;13.734;2023-02-14T02:21:11;7.20;66.50
16347;DHT22;8283;48.504;13.734;2023-02-14T02:24:19;7.20;67.40
16347;DHT22;8283;48.504;13.734;2023-02-14T02:43:14;7.20;67.70
16347;DHT22;8283;48.504;13.734;2023-02-14T02:55:59;7.30;67.30
16347;DHT22;8283;48.504;13.734;2023-02-14T02:59:07;7.30;67.90
16347;DHT22;8283;48.504;13.734;2023-02-14T03:05:01;7.30;67.80
16347;DHT22;8283;48.504;13.734;2023-02-14T03:07:48;7.40;67.30
16347;DHT22;8283;48.504;13.734;2023-02-14T03:10:35;7.40;67.20
16347;DHT22;8283;48.504;13.734;2023-02-14T03:13:47;7.40;67.30
16347;DHT22;8283;48.504;13.734;2023-02-14T03:23:21;7.40;67.80
16347;DHT22;8283;48.504;13.734;2023-02-14T03:26:17;7.50;68.20
16347;DHT22;8283;48.504;13.734;2023-02-14T03:29:15;7.40;67.40
16347;DHT22;8283;48.504;13.734;2023-02-14T03:35:17;7.40;67.80
16347;DHT22;8283;48.504;13.734;2023-02-14T03:38:12;7.50;67.50
16347;DHT22;8283;48.504;13.734;2023-02-14T03:41:04;7.50;67.60
16347;DHT22;8283;48.504;13.734;2023-02-14T03:43:54;7.40;67.40
16347;DHT22;8283;48.504;13.734;2023-02-14T03:46:44;7.40;67.10
16347;DHT22;8283;48.504;13.734;2023-02-14T03:49:35;7.40;67.30
16347;DHT22;8283;48.504;13.734;2023-02-14T03:52:21;7.40;67.30
16347;DHT22;8283;48.504;13.734;2023-02-14T03:55:07;7.40;67.10
16347;DHT22;8283;48.504;13.734;2023-02-14T04:00:58;7.40;67.40
16347;DHT22;8283;48.504;13.734;2023-02-14T04:03:43;7.40;67.30
16347;DHT22;8283;48.504;13.734;2023-02-14T04:06:28;7.40;67.10
16347;DHT22;8283;48.504;13.734;2023-02-14T04:09:13;7.40;67.20
16347;DHT22;8283;48.504;13.734;2023-02-14T04:11:57;7.40;67.30
16347;DHT22;8283;48.504;13.734;2023-02-14T04:14:41;7.40;67.40
16347;DHT22;8283;48.504;13.734;2023-02-14T04:17:26;7.40;67.50
16347;DHT22;8283;48.504;13.734;2023-02-14T04:20:29;7.40;67.60
16347;DHT22;8283;48.504;13.734;2023-02-14T04:23:14;7.40;67.60
16347;DHT22;8283;48.504;13.734;2023-02-14T04:25:59;7.40;67.60
16347;DHT22;8283;48.504;13.734;2023-02-14T04:28:43;7.50;67.70
16347;DHT22;8283;48.504;13.734;2023-02-14T04:31:27;7.50;67.70
16347;DHT22;8283;48.504;13.734;2023-02-14T04:34:12;7.50;67.70
16347;DHT22;8283;48.504;13.734;2023-02-14T04:36:57;7.50;67.70
16347;DHT22;8283;48.504;13.734;2023-02-14T04:39:41;7.50;67.70
16347;DHT22;8283;48.504;13.734;2023-02-14T04:42:26;7.50;67.60
16347;DHT22;8283;48.504;13.734;2023-02-14T04:45:11;7.60;67.70
16347;DHT22;8283;48.504;13.734;2023-02-14T04:47:55;7.60;67.60
16347;DHT22;8283;48.504;13.734;2023-02-14T04:50:41;7.60;67.60
16347;DHT22;8283;48.504;13.734;2023-02-14T04:53:25;7.60;67.50
16347;DHT22;8283;48.504;13.734;2023-02-14T04:56:10;7.60;67.40
16347;DHT22;8283;48.504;13.734;2023-02-14T04:58:54;7.60;67.40
16347;DHT22;8283;48.504;13.734;2023-02-14T05:01:40;7.60;67.40
16347;DHT22;8283;48.504;13.734;2023-02-14T05:04:25;7.60;67.60
16347;DHT22;8283;48.504;13.734;2023-02-14T05:07:09;7.70;67.50
16347;DHT22;8283;48.504;13.734;2023-02-14T05:09:56;7.60;67.50
16347;DHT22;8283;48.504;13.734;2023-02-14T05:12:40;7.60;67.60
16347;DHT22;8283;48.504;13.734;2023-02-14T05:15:25;7.60;67.50
16347;DHT22;8283;48.504;13.734;2023-02-14T05:18:09;7.60;67.50
16347;DHT22;8283;48.504;13.734;2023-02-14T05:20:54;7.70;67.60
16347;DHT22;8283;48.504;13.734;2023-02-14T05:23:38;7.70;67.70
16347;DHT22;8283;48.504;13.734;2023-02-14T05:26:23;7.70;67.60
16347;DHT22;8283;48.504;13.734;2023-02-14T05:29:07;7.70;67.50
16347;DHT22;8283;48.504;13.734;2023-02-14T05:31:52;7.70;67.50
16347;DHT22;8283;48.504;13.734;2023-02-14T05:34:36;7.70;67.40
16347;DHT22;8283;48.504;13.734;2023-02-14T05:37:21;7.70;67.50
16347;DHT22;8283;48.504;13.734;2023-02-14T05:40:06;7.80;67.50
16347;DHT22;8283;48.504;13.734;2023-02-14T05:42:53;7.70;67.50
16347;DHT22;8283;48.504;13.734;2023-02-14T05:45:40;7.70;67.60
16347;DHT22;8283;48.504;13.734;2023-02-14T05:48:24;7.70;67.60
16347;DHT22;8283;48.504;13.734;2023-02-14T05:51:09;7.70;67.60
16347;DHT22;8283;48.504;13.734;2023-02-14T05:53:54;6.60;66.90
16347;DHT22;8283;48.504;13.734;2023-02-14T05:56:41;7.80;67.60
16347;DHT22;8283;48.504;13.734;2023-02-14T05:59:26;7.80;67.80
16347;DHT22;8283;48.504;13.734;2023-02-14T06:02:10;7.80;67.60
16347;DHT22;8283;48.504;13.734;2023-02-14T06:04:55;7.80;67.50
16347;DHT22;8283;48.504;13.734;2023-02-14T06:07:40;7.80;67.50
16347;DHT22;8283;48.504;13.734;2023-02-14T06:10:27;7.80;67.60
16347;DHT22;8283;48.504;13.734;2023-02-14T06:13:12;7.80;68.20
16347;DHT22;8283;48.504;13.734;2023-02-14T06:15:56;7.80;67.50
16347;DHT22;8283;48.504;13.734;2023-02-14T06:18:41;7.80;67.70
16347;DHT22;8283;48.504;13.734;2023-02-14T06:21:25;7.70;67.60
16347;DHT22;8283;48.504;13.734;2023-02-14T06:24:10;7.70;67.70
16347;DHT22;8283;48.504;13.734;2023-02-14T06:26:55;7.70;67.70
16347;DHT22;8283;48.504;13.734;2023-02-14T06:29:39;7.80;67.90
16347;DHT22;8283;48.504;13.734;2023-02-14T06:32:25;7.80;67.90
16347;DHT22;8283;48.504;13.734;2023-02-14T06:35:09;7.80;67.90
16347;DHT22;8283;48.504;13.734;2023-02-14T06:37:54;7.80;67.90
16347;DHT22;8283;48.504;13.734;2023-02-14T06:40:38;7.80;68.10
16347;DHT22;8283;48.504;13.734;2023-02-14T06:43:23;7.70;68.00
16347;DHT22;8283;48.504;13.734;2023-02-14T06:46:08;7.70;68.40
16347;DHT22;8283;48.504;13.734;2023-02-14T06:48:53;7.60;68.40
16347;DHT22;8283;48.504;13.734;2023-02-14T06:51:37;7.50;68.20
16347;DHT22;8283;48.504;13.734;2023-02-14T06:54:25;7.50;68.40
16347;DHT22;8283;48.504;13.734;2023-02-14T06:57:09;7.40;68.50
16347;DHT22;8283;48.504;13.734;2023-02-14T06:59:54;7.30;68.40
16347;DHT22;8283;48.504;13.734;2023-02-14T07:02:39;7.30;68.60
16347;DHT22;8283;48.504;13.734;2023-02-14T07:05:24;7.30;68.80
16347;DHT22;8283;48.504;13.734;2023-02-14T07:08:09;7.20;68.60
16347;DHT22;8283;48.504;13.734;2023-02-14T07:10:57;7.20;68.60
16347;DHT22;8283;48.504;13.734;2023-02-14T07:13:41;7.20;69.00
16347;DHT22;8283;48.504;13.734;2023-02-14T07:16:26;7.20;69.20
16347;DHT22;8283;48.504;13.734;2023-02-14T07:19:14;7.20;68.90
16347;DHT22;8283;48.504;13.734;2023-02-14T07:21:58;7.10;69.10
16347;DHT22;8283;48.504;13.734;2023-02-14T07:24:43;7.10;68.90
16347;DHT22;8283;48.504;13.734;2023-02-14T07:27:27;7.10;69.20
16347;DHT22;8283;48.504;13.734;2023-02-14T07:30:13;7.10;69.20
16347;DHT22;8283;48.504;13.734;2023-02-14T07:32:57;7.10;69.40
16347;DHT22;8283;48.504;13.734;2023-02-14T07:35:42;7.10;69.20
16347;DHT22;8283;48.504;13.734;2023-02-14T07:38:26;7.10;69.30
16347;DHT22;8283;48.504;13.734;2023-02-14T07:41:13;7.10;69.30
16347;DHT22;8283;48.504;13.734;2023-02-14T07:43:58;7.10;69.30
16347;DHT22;8283;48.504;13.734;2023-02-14T07:46:42;7.10;69.40
16347;DHT22;8283;48.504;13.734;2023-02-14T07:49:27;7.10;69.30
16347;DHT22;8283;48.504;13.734;2023-02-14T07:52:11;7.70;69.50
16347;DHT22;8283;48.504;13.734;2023-02-14T07:54:55;7.10;69.80
16347;DHT22;8283;48.504;13.734;2023-02-14T07:57:40;7.10;69.70
16347;DHT22;8283;48.504;13.734;2023-02-14T08:00:25;7.10;69.50
16347;DHT22;8283;48.504;13.734;2023-02-14T08:03:09;7.10;69.50
16347;DHT22;8283;48.504;13.734;2023-02-14T08:05:54;7.10;69.60
16347;DHT22;8283;48.504;13.734;2023-02-14T08:08:41;7.00;69.50
16347;DHT22;8283;48.504;13.734;2023-02-14T08:11:26;7.20;69.70
16347;DHT22;8283;48.504;13.734;2023-02-14T08:14:29;7.00;70.00
16347;DHT22;8283;48.504;13.734;2023-02-14T08:17:14;7.00;69.50
16347;DHT22;8283;48.504;13.734;2023-02-14T08:19:58;7.00;69.50
16347;DHT22;8283;48.504;13.734;2023-02-14T08:22:43;7.00;69.50
16347;DHT22;8283;48.504;13.734;2023-02-14T08:25:27;7.10;70.10
16347;DHT22;8283;48.504;13.734;2023-02-14T08:28:11;7.10;69.70
16347;DHT22;8283;48.504;13.734;2023-02-14T08:30:59;7.10;69.70
16347;DHT22;8283;48.504;13.734;2023-02-14T08:33:44;7.20;69.80
16347;DHT22;8283;48.504;13.734;2023-02-14T08:36:29;7.20;69.80
16347;DHT22;8283;48.504;13.734;2023-02-14T08:39:13;7.30;69.80
16347;DHT22;8283;48.504;13.734;2023-02-14T08:41:58;7.40;69.80
16347;DHT22;8283;48.504;13.734;2023-02-14T08:44:43;7.50;69.90
16347;DHT22;8283;48.504;13.734;2023-02-14T08:47:28;7.50;70.00
16347;DHT22;8283;48.504;13.734;2023-02-14T08:50:15;7.60;70.00
16347;DHT22;8283;48.504;13.734;2023-02-14T08:53:00;7.60;70.00
16347;DHT22;8283;48.504;13.734;2023-02-14T08:55:45;7.70;69.90
16347;DHT22;8283;48.504;13.734;2023-02-14T08:58:30;7.70;70.00
16347;DHT22;8283;48.504;13.734;2023-02-14T09:01:16;7.80;70.10
16347;DHT22;8283;48.504;13.734;2023-02-14T09:04:00;8.30;70.30
16347;DHT22;8283;48.504;13.734;2023-02-14T09:06:45;8.10;70.00
16347;DHT22;8283;48.504;13.734;2023-02-14T09:09:31;8.10;70.00
16347;DHT22;8283;48.504;13.734;2023-02-14T09:12:16;8.10;69.90
16347;DHT22;8283;48.504;13.734;2023-02-14T09:15:00;8.20;70.00
16347;DHT22;8283;48.504;13.734;2023-02-14T09:17:45;8.30;69.90
16347;DHT22;8283;48.504;13.734;2023-02-14T09:20:30;9.00;70.40
16347;DHT22;8283;48.504;13.734;2023-02-14T09:23:14;8.40;69.80
16347;DHT22;8283;48.504;13.734;2023-02-14T09:26:00;8.40;69.70
16347;DHT22;8283;48.504;13.734;2023-02-14T09:28:46;8.40;69.60
16347;DHT22;8283;48.504;13.734;2023-02-14T09:31:31;8.40;69.80
16347;DHT22;8283;48.504;13.734;2023-02-14T09:34:15;8.50;70.00
16347;DHT22;8283;48.504;13.734;2023-02-14T09:37:01;8.60;70.00
16347;DHT22;8283;48.504;13.734;2023-02-14T09:40:05;8.60;69.70
16347;DHT22;8283;48.504;13.734;2023-02-14T09:43:06;8.70;69.60
16347;DHT22;8283;48.504;13.734;2023-02-14T09:45:55;8.70;69.40
16347;DHT22;8283;48.504;13.734;2023-02-14T09:48:44;8.70;69.20
16347;DHT22;8283;48.504;13.734;2023-02-14T09:51:30;8.70;69.20
16347;DHT22;8283;48.504;13.734;2023-02-14T09:54:20;8.70;69.30
16347;DHT22;8283;48.504;13.734;2023-02-14T09:57:37;8.70;69.20
16347;DHT22;8283;48.504;13.734;2023-02-14T10:00:37;8.60;69.50
16347;DHT22;8283;48.504;13.734;2023-02-14T10:03:53;8.60;69.60
16347;DHT22;8283;48.504;13.734;2023-02-14T10:15:27;8.80;69.90
16347;DHT22;8283;48.504;13.734;2023-02-14T10:22:01;8.90;70.00
16347;DHT22;8283;48.504;13.734;2023-02-14T10:24:52;9.00;70.00
16347;DHT22;8283;48.504;13.734;2023-02-14T10:27:40;9.10;70.10
16347;DHT22;8283;48.504;13.734;2023-02-14T10:30:37;9.20;69.60
16347;DHT22;8283;48.504;13.734;2023-02-14T10:33:27;9.30;69.50
16347;DHT22;8283;48.504;13.734;2023-02-14T10:51:22;9.50;69.50
16347;DHT22;8283;48.504;13.734;2023-02-14T10:54:24;9.60;69.10
16347;DHT22;8283;48.504;13.734;2023-02-14T10:57:32;9.70;69.20
16347;DHT22;8283;48.504;13.734;2023-02-14T11:00:25;9.80;69.00
16347;DHT22;8283;48.504;13.734;2023-02-14T11:03:12;9.80;69.40
16347;DHT22;8283;48.504;13.734;2023-02-14T11:05:57;9.90;69.70
16347;DHT22;8283;48.504;13.734;2023-02-14T11:08:41;10.00;69.00
16347;DHT22;8283;48.504;13.734;2023-02-14T11:11:29;10.30;69.30
16347;DHT22;8283;48.504;13.734;2023-02-14T11:14:32;10.10;69.10
16347;DHT22;8283;48.504;13.734;2023-02-14T11:17:28;10.10;69.00
16347;DHT22;8283;48.504;13.734;2023-02-14T11:20:23;10.20;69.20
16347;DHT22;8283;48.504;13.734;2023-02-14T11:23:20;10.40;69.10
16347;DHT22;8283;48.504;13.734;2023-02-14T11:26:10;10.50;69.20
16347;DHT22;8283;48.504;13.734;2023-02-14T11:28:59;10.60;69.50
16347;DHT22;8283;48.504;13.734;2023-02-14T11:31:44;10.70;69.40
16347;DHT22;8283;48.504;13.734;2023-02-14T11:34:33;10.80;69.50
16347;DHT22;8283;48.504;13.734;2023-02-14T11:37:29;11.00;69.30
16347;DHT22;8283;48.504;13.734;2023-02-14T11:43:31;11.30;68.40
16347;DHT22;8283;48.504;13.734;2023-02-14T11:49:05;11.60;69.60
16347;DHT22;8283;48.504;13.734;2023-02-14T11:51:50;11.70;68.70
16347;DHT22;8283;48.504;13.734;2023-02-14T11:54:38;11.80;68.90
16347;DHT22;8283;48.504;13.734;2023-02-14T12:00:17;12.40;67.70
16347;DHT22;8283;48.504;13.734;2023-02-14T12:03:04;12.00;67.60
16347;DHT22;8283;48.504;13.734;2023-02-14T12:05:49;12.10;67.90
16347;DHT22;8283;48.504;13.734;2023-02-14T12:08:37;12.10;68.00
16347;DHT22;8283;48.504;13.734;2023-02-14T12:11:24;12.20;68.30
16347;DHT22;8283;48.504;13.734;2023-02-14T12:14:20;12.30;68.50
16347;DHT22;8283;48.504;13.734;2023-02-14T12:17:30;12.40;66.40
16347;DHT22;8283;48.504;13.734;2023-02-14T12:20:18;12.50;65.80
16347;DHT22;8283;48.504;13.734;2023-02-14T12:26:00;12.60;67.10
16347;DHT22;8283;48.504;13.734;2023-02-14T12:29:13;12.60;68.40
16347;DHT22;8283;48.504;13.734;2023-02-14T12:32:23;12.80;67.70
16347;DHT22;8283;48.504;13.734;2023-02-14T12:35:18;13.10;68.10
16347;DHT22;8283;48.504;13.734;2023-02-14T12:41:48;13.80;68.60
16347;DHT22;8283;48.504;13.734;2023-02-14T12:47:38;14.60;69.30
16347;DHT22;8283;48.504;13.734;2023-02-14T12:53:51;15.20;67.10
16347;DHT22;8283;48.504;13.734;2023-02-14T13:09:44;15.80;59.60
16347;DHT22;8283;48.504;13.734;2023-02-14T13:22:38;15.00;61.20
16347;DHT22;8283;48.504;13.734;2023-02-14T13:25:27;14.90;62.40
16347;DHT22;8283;48.504;13.734;2023-02-14T13:28:18;14.70;62.30
16347;DHT22;8283;48.504;13.734;2023-02-14T13:31:03;14.50;62.00
16347;DHT22;8283;48.504;13.734;2023-02-14T13:33:55;14.70;62.10
16347;DHT22;8283;48.504;13.734;2023-02-14T13:36:42;14.20;61.40
16347;DHT22;8283;48.504;13.734;2023-02-14T13:39:41;14.20;61.80
16347;DHT22;8283;48.504;13.734;2023-02-14T13:48:23;13.60;61.70
16347;DHT22;8283;48.504;13.734;2023-02-14T13:51:09;13.50;61.70
16347;DHT22;8283;48.504;13.734;2023-02-14T13:53:54;13.40;62.20
16347;DHT22;8283;48.504;13.734;2023-02-14T13:56:38;13.30;62.40
16347;DHT22;8283;48.504;13.734;2023-02-14T13:59:29;13.70;62.30
16347;DHT22;8283;48.504;13.734;2023-02-14T14:02:54;13.10;61.10
16347;DHT22;8283;48.504;13.734;2023-02-14T14:14:27;12.00;60.20
16347;DHT22;8283;48.504;13.734;2023-02-14T14:17:22;12.40;61.60
16347;DHT22;8283;48.504;13.734;2023-02-14T14:22:59;12.10;62.20
16347;DHT22;8283;48.504;13.734;2023-02-14T14:25:45;12.10;62.50
16347;DHT22;8283;48.504;13.734;2023-02-14T14:28:30;12.00;62.30
16347;DHT22;8283;48.504;13.734;2023-02-14T14:31:19;11.90;62.40
16347;DHT22;8283;48.504;13.734;2023-02-14T14:34:03;11.90;62.10
16347;DHT22;8283;48.504;13.734;2023-02-14T14:36:47;11.80;62.30
16347;DHT22;8283;48.504;13.734;2023-02-14T14:39:34;11.70;62.20
16347;DHT22;8283;48.504;13.734;2023-02-14T14:42:20;11.60;62.20
16347;DHT22;8283;48.504;13.734;2023-02-14T14:45:23;11.50;62.40
16347;DHT22;8283;48.504;13.734;2023-02-14T14:48:11;11.40;62.30
16347;DHT22;8283;48.504;13.734;2023-02-14T14:50:57;11.40;62.60
16347;DHT22;8283;48.504;13.734;2023-02-14T14:53:44;11.30;62.40
16347;DHT22;8283;48.504;13.734;2023-02-14T14:56:33;11.20;62.50
16347;DHT22;8283;48.504;13.734;2023-02-14T14:59:34;11.20;62.50
16347;DHT22;8283;48.504;13.734;2023-02-14T15:02:24;11.10;62.50
16347;DHT22;8283;48.504;13.734;2023-02-14T15:11:20;11.00;62.60
16347;DHT22;8283;48.504;13.734;2023-02-14T15:14:25;11.00;62.70
16347;DHT22;8283;48.504;13.734;2023-02-14T15:17:17;11.60;63.00
16347;DHT22;8283;48.504;13.734;2023-02-14T15:20:22;10.90;62.60
16347;DHT22;8283;48.504;13.734;2023-02-14T15:23:18;10.80;62.50
16347;DHT22;8283;48.504;13.734;2023-02-14T15:26:04;10.80;62.60
16347;DHT22;8283;48.504;13.734;2023-02-14T15:28:55;10.70;62.50
16347;DHT22;8283;48.504;13.734;2023-02-14T15:31:40;10.60;62.60
16347;DHT22;8283;48.504;13.734;2023-02-14T15:34:30;10.60;62.50
16347;DHT22;8283;48.504;13.734;2023-02-14T15:37:15;10.50;62.60
16347;DHT22;8283;48.504;13.734;2023-02-14T15:40:01;10.50;62.70
16347;DHT22;8283;48.504;13.734;2023-02-14T15:42:46;10.40;62.80
16347;DHT22;8283;48.504;13.734;2023-02-14T15:45:31;10.40;62.80
16347;DHT22;8283;48.504;13.734;2023-02-14T15:48:23;10.40;62.90
16347;DHT22;8283;48.504;13.734;2023-02-14T15:51:16;10.40;62.90
16347;DHT22;8283;48.504;13.734;2023-02-14T15:54:27;10.40;62.90
16347;DHT22;8283;48.504;13.734;2023-02-14T15:57:20;10.30;63.00
16347;DHT22;8283;48.504;13.734;2023-02-14T16:00:15;10.30;62.80
16347;DHT22;8283;48.504;13.734;2023-02-14T16:03:04;10.30;63.00
16347;DHT22;8283;48.504;13.734;2023-02-14T16:05:49;10.20;63.00
16347;DHT22;8283;48.504;13.734;2023-02-14T16:08:38;10.20;63.00
16347;DHT22;8283;48.504;13.734;2023-02-14T16:11:33;10.10;63.10
16347;DHT22;8283;48.504;13.734;2023-02-14T16:14:38;10.10;63.40
16347;DHT22;8283;48.504;13.734;2023-02-14T16:17:33;10.10;63.60
16347;DHT22;8283;48.504;13.734;2023-02-14T16:23:20;10.00;63.30
16347;DHT22;8283;48.504;13.734;2023-02-14T16:26:05;10.00;63.80
16347;DHT22;8283;48.504;13.734;2023-02-14T16:28:49;9.90;63.30
16347;DHT22;8283;48.504;13.734;2023-02-14T16:31:35;9.90;63.30
16347;DHT22;8283;48.504;13.734;2023-02-14T16:34:21;9.90;63.40
16347;DHT22;8283;48.504;13.734;2023-02-14T16:37:08;9.80;63.40
16347;DHT22;8283;48.504;13.734;2023-02-14T16:40:00;9.80;63.50
16347;DHT22;8283;48.504;13.734;2023-02-14T16:42:45;9.80;63.50
16347;DHT22;8283;48.504;13.734;2023-02-14T16:45:29;9.70;63.50
16347;DHT22;8283;48.504;13.734;2023-02-14T16:48:14;9.70;63.50
16347;DHT22;8283;48.504;13.734;2023-02-14T16:51:02;9.60;63.60
16347;DHT22;8283;48.504;13.734;2023-02-14T16:53:47;9.60;63.60
16347;DHT22;8283;48.504;13.734;2023-02-14T16:56:40;9.60;64.40
16347;DHT22;8283;48.504;13.734;2023-02-14T16:59:26;9.60;64.00
16347;DHT22;8283;48.504;13.734;2023-02-14T17:02:11;9.60;63.70
16347;DHT22;8283;48.504;13.734;2023-02-14T17:04:56;9.50;63.70
16347;DHT22;8283;48.504;13.734;2023-02-14T17:07:41;9.50;63.80
16347;DHT22;8283;48.504;13.734;2023-02-14T17:10:27;9.40;63.80
16347;DHT22;8283;48.504;13.734;2023-02-14T17:13:18;9.40;63.80
16347;DHT22;8283;48.504;13.734;2023-02-14T17:16:04;9.40;63.90
16347;DHT22;8283;48.504;13.734;2023-02-14T17:18:51;9.30;63.70
16347;DHT22;8283;48.504;13.734;2023-02-14T17:21:35;9.30;63.90
16347;DHT22;8283;48.504;13.734;2023-02-14T17:24:21;9.20;63.80
16347;DHT22;8283;48.504;13.734;2023-02-14T17:27:06;9.20;63.90
16347;DHT22;8283;48.504;13.734;2023-02-14T17:29:51;9.20;64.00
16347;DHT22;8283;48.504;13.734;2023-02-14T17:32:35;9.10;63.90
16347;DHT22;8283;48.504;13.734;2023-02-14T17:35:21;9.10;64.00
16347;DHT22;8283;48.504;13.734;2023-02-14T17:38:05;9.10;64.00
16347;DHT22;8283;48.504;13.734;2023-02-14T17:40:49;9.00;63.90
16347;DHT22;8283;48.504;13.734;2023-02-14T17:43:34;9.00;63.90
16347;DHT22;8283;48.504;13.734;2023-02-14T17:46:20;9.00;63.90
16347;DHT22;8283;48.504;13.734;2023-02-14T17:49:05;8.90;63.90
16347;DHT22;8283;48.504;13.734;2023-02-14T17:51:51;8.90;63.90
16347;DHT22;8283;48.504;13.734;2023-02-14T17:54:36;8.80;63.90
16347;DHT22;8283;48.504;13.734;2023-02-14T17:57:21;8.80;64.70
16347;DHT22;8283;48.504;13.734;2023-02-14T18:00:07;8.70;64.00
16347;DHT22;8283;48.504;13.734;2023-02-14T18:02:57;8.70;64.10
16347;DHT22;8283;48.504;13.734;2023-02-14T18:05:42;8.70;64.10
16347;DHT22;8283;48.504;13.734;2023-02-14T18:08:28;8.60;64.10
16347;DHT22;8283;48.504;13.734;2023-02-14T18:11:13;8.60;64.20
16347;DHT22;8283;48.504;13.734;2023-02-14T18:13:57;8.50;64.00
16347;DHT22;8283;48.504;13.734;2023-02-14T18:16:44;8.50;64.10
16347;DHT22;8283;48.504;13.734;2023-02-14T18:19:29;8.40;64.10
16347;DHT22;8283;48.504;13.734;2023-02-14T18:22:14;8.30;64.00
16347;DHT22;8283;48.504;13.734;2023-02-14T18:24:58;8.30;64.10
16347;DHT22;8283;48.504;13.734;2023-02-14T18:27:43;8.20;64.20
16347;DHT22;8283;48.504;13.734;2023-02-14T18:30:28;8.20;64.30
16347;DHT22;8283;48.504;13.734;2023-02-14T18:33:12;8.10;64.30
16347;DHT22;8283;48.504;13.734;2023-02-14T18:36:00;8.10;64.40
16347;DHT22;8283;48.504;13.734;2023-02-14T18:38:47;8.10;64.50
16347;DHT22;8283;48.504;13.734;2023-02-14T18:41:32;8.00;64.60
16347;DHT22;8283;48.504;13.734;2023-02-14T18:44:16;8.00;64.50
16347;DHT22;8283;48.504;13.734;2023-02-14T18:47:02;8.00;64.60
16347;DHT22;8283;48.504;13.734;2023-02-14T18:49:47;7.90;64.50
16347;DHT22;8283;48.504;13.734;2023-02-14T18:52:34;7.90;65.00
16347;DHT22;8283;48.504;13.734;2023-02-14T18:55:18;7.90;64.70
16347;DHT22;8283;48.504;13.734;2023-02-14T18:58:03;7.90;64.60
16347;DHT22;8283;48.504;13.734;2023-02-14T19:00:47;7.80;64.50
16347;DHT22;8283;48.504;13.734;2023-02-14T19:03:32;7.80;64.60
16347;DHT22;8283;48.504;13.734;2023-02-14T19:06:18;7.80;64.60
16347;DHT22;8283;48.504;13.734;2023-02-14T19:09:07;7.80;64.70
16347;DHT22;8283;48.504;13.734;2023-02-14T19:11:52;7.70;64.90
16347;DHT22;8283;48.504;13.734;2023-02-14T19:14:37;7.70;64.70
16347;DHT22;8283;48.504;13.734;2023-02-14T19:17:21;7.60;64.70
16347;DHT22;8283;48.504;13.734;2023-02-14T19:20:06;7.00;64.40
16347;DHT22;8283;48.504;13.734;2023-02-14T19:22:51;7.60;64.90
16347;DHT22;8283;48.504;13.734;2023-02-14T19:25:36;7.60;64.90
16347;DHT22;8283;48.504;13.734;2023-02-14T19:28:21;7.60;65.00
16347;DHT22;8283;48.504;13.734;2023-02-14T19:31:07;7.60;65.00
16347;DHT22;8283;48.504;13.734;2023-02-14T19:33:52;7.50;64.90
16347;DHT22;8283;48.504;13.734;2023-02-14T19:36:37;7.50;65.10
16347;DHT22;8283;48.504;13.734;2023-02-14T19:39:22;7.50;64.90
16347;DHT22;8283;48.504;13.734;2023-02-14T19:42:07;7.40;64.90
16347;DHT22;8283;48.504;13.734;2023-02-14T19:44:52;7.40;64.90
16347;DHT22;8283;48.504;13.734;2023-02-14T19:47:37;7.40;64.90
16347;DHT22;8283;48.504;13.734;2023-02-14T19:50:22;7.40;64.90
16347;DHT22;8283;48.504;13.734;2023-02-14T19:53:07;7.30;65.00
16347;DHT22;8283;48.504;13.734;2023-02-14T19:55:51;7.30;65.00
16347;DHT22;8283;48.504;13.734;2023-02-14T19:58:36;7.20;64.90
16347;DHT22;8283;48.504;13.734;2023-02-14T20:01:33;7.20;64.80
16347;DHT22;8283;48.504;13.734;2023-02-14T20:04:24;7.10;65.50
16347;DHT22;8283;48.504;13.734;2023-02-14T20:07:09;7.10;65.20
16347;DHT22;8283;48.504;13.734;2023-02-14T20:09:53;7.00;65.00
16347;DHT22;8283;48.504;13.734;2023-02-14T20:12:38;7.00;65.00
16347;DHT22;8283;48.504;13.734;2023-02-14T20:15:22;7.00;65.00
16347;DHT22;8283;48.504;13.734;2023-02-14T20:18:09;6.90;65.20
16347;DHT22;8283;48.504;13.734;2023-02-14T20:20:53;6.90;65.00